Time;durP1;ratioP1;P1;durP2;ratioP2;P2;SDS_P1;SDS_P2;PMS_P1;PMS_P2;Temp;Humidity;BMP_temperature;BMP_pressure;BME280_temperature;BME280_humidity;BME280_pressure;Samples;Min_cycle;Max_cycle;Signal;HPM_P1;HPM_P2
2020/12/26 00:01:39;;;;;;;18.98;11.60;;;;;;;6.60;75.92;93016.72;4927528;29;20090;-44
2020/12/26 00:04:05;;;;;;;16.35;10.13;;;;;;;6.59;76.44;93015.22;4925824;29;20087;-45
2020/12/26 00:06:30;;;;;;;12.82;7.85;;;;;;;6.75;75.60;93019.59;4924946;29;20039;-46
2020/12/26 00:08:56;;;;;;;14.15;8.10;;;;;;;6.78;75.74;93019.25;4925081;29;20489;-44
2020/12/26 00:11:22;;;;;;;14.73;8.32;;;;;;;6.99;75.00;93022.03;4926747;29;20020;-45
2020/12/26 00:13:49;;;;;;;11.27;7.47;;;;;;;6.85;75.43;93017.84;4926431;29;20047;-45
2020/12/26 00:16:16;;;;;;;13.05;7.85;;;;;;;7.09;75.18;93028.50;4925167;29;20028;-45
2020/12/26 00:18:42;;;;;;;30.63;17.98;;;;;;;7.13;74.59;93017.91;4926782;29;20553;-45
2020/12/26 00:21:10;;;;;;;26.77;14.73;;;;;;;7.22;74.16;93028.44;4926530;29;20032;-45
2020/12/26 00:23:36;;;;;;;29.73;16.43;;;;;;;7.15;74.47;93023.59;4932803;29;20067;-46
2020/12/26 00:26:02;;;;;;;36.08;18.45;;;;;;;7.28;74.28;93037.25;4931195;29;20500;-48
2020/12/26 00:28:27;;;;;;;45.92;24.10;;;;;;;7.21;74.08;93029.69;4926481;29;20071;-55
2020/12/26 00:30:53;;;;;;;39.85;21.40;;;;;;;7.09;73.32;92992.81;4925094;29;20512;-48
2020/12/26 00:33:18;;;;;;;53.38;23.48;;;;;;;7.14;73.63;93010.44;4925780;29;20448;-47
2020/12/26 00:35:44;;;;;;;40.63;19.80;;;;;;;7.02;74.51;93025.72;4929137;29;20476;-49
2020/12/26 00:38:09;;;;;;;41.22;20.00;;;;;;;7.19;74.38;93039.75;4931440;29;20070;-46
2020/12/26 00:40:35;;;;;;;40.88;21.70;;;;;;;7.14;74.21;93021.41;4931703;29;20114;-47
2020/12/26 00:43:00;;;;;;;44.03;22.98;;;;;;;7.20;74.33;93035.72;4921369;29;20091;-48
2020/12/26 00:45:26;;;;;;;47.00;24.25;;;;;;;7.25;73.68;93029.38;4916568;29;20497;-45
2020/12/26 00:47:51;;;;;;;49.78;25.90;;;;;;;7.26;73.53;93028.81;4916532;29;20036;-48
2020/12/26 00:50:16;;;;;;;37.53;18.67;;;;;;;7.15;74.22;93031.84;4916588;29;20693;-46
2020/12/26 00:52:42;;;;;;;31.25;16.23;;;;;;;7.10;74.11;93024.50;4916467;29;20070;-46
2020/12/26 00:55:07;;;;;;;32.50;16.75;;;;;;;6.89;75.04;93023.75;4916453;29;20032;-45
2020/12/26 00:57:33;;;;;;;37.63;18.75;;;;;;;7.07;74.81;93027.56;4915636;29;20059;-46
2020/12/26 00:59:59;;;;;;;31.25;16.73;;;;;;;7.10;74.26;93019.00;4916034;29;20524;-48
2020/12/26 01:02:24;;;;;;;34.30;16.95;;;;;;;7.06;74.50;93028.84;4917002;29;20032;-46
2020/12/26 01:04:50;;;;;;;33.33;16.83;;;;;;;7.11;74.81;93031.44;4934654;29;20086;-46
2020/12/26 01:07:15;;;;;;;30.13;16.65;;;;;;;6.91;74.99;93026.69;4935208;29;20028;-46
2020/12/26 01:09:41;;;;;;;32.03;17.17;;;;;;;6.78;76.12;93032.22;4935119;29;20027;-45
2020/12/26 01:12:06;;;;;;;26.50;15.50;;;;;;;6.89;75.75;93040.94;4935002;29;20028;-45
2020/12/26 01:14:32;;;;;;;34.53;18.60;;;;;;;7.07;75.11;93025.56;4935327;29;20113;-48
2020/12/26 01:16:58;;;;;;;32.47;18.08;;;;;;;6.95;75.01;93029.84;4935639;29;20504;-46
2020/12/26 01:19:23;;;;;;;26.42;16.40;;;;;;;7.03;74.93;93029.91;4935561;29;20500;-45
2020/12/26 01:21:52;;;;;;;29.65;16.75;;;;;;;7.13;74.61;93028.91;4935777;29;20031;-46
2020/12/26 01:24:18;;;;;;;29.13;18.27;;;;;;;7.05;74.47;93021.88;4936045;29;20038;-47
2020/12/26 01:26:48;;;;;;;45.10;23.88;;;;;;;6.66;75.62;92989.88;4936017;29;20036;-46
2020/12/26 01:29:14;;;;;;;43.90;22.80;;;;;;;6.95;75.11;93009.91;4935875;29;20496;-46
2020/12/26 01:31:40;;;;;;;46.50;23.55;;;;;;;6.96;75.05;93019.59;4936157;29;20027;-46
2020/12/26 01:34:06;;;;;;;50.38;27.88;;;;;;;6.95;74.55;93002.41;4936163;29;20027;-47
2020/12/26 01:36:32;;;;;;;60.88;30.00;;;;;;;6.97;74.58;92999.13;4935678;29;20046;-45
2020/12/26 01:38:57;;;;;;;51.65;28.52;;;;;;;6.97;74.63;93004.63;4934674;29;20042;-46
2020/12/26 01:41:23;;;;;;;52.33;27.85;;;;;;;6.86;74.92;93000.84;4935041;29;20048;-45
2020/12/26 01:43:55;;;;;;;56.13;30.23;;;;;;;6.90;74.57;93000.53;4936142;29;20094;-48
2020/12/26 01:46:22;;;;;;;55.97;31.35;;;;;;;6.76;74.64;93001.84;4935677;29;20035;-45
2020/12/26 01:48:47;;;;;;;51.22;29.38;;;;;;;6.76;74.46;92990.88;4935617;29;20052;-46
2020/12/26 01:51:13;;;;;;;51.28;27.67;;;;;;;6.36;75.69;92987.59;4922139;29;20028;-45
2020/12/26 01:53:39;;;;;;;43.63;23.73;;;;;;;6.24;76.77;92982.88;4921204;29;20120;-46
2020/12/26 01:56:04;;;;;;;43.28;23.75;;;;;;;6.41;76.01;92983.97;4916541;29;20059;-47
2020/12/26 01:58:34;;;;;;;52.60;22.95;;;;;;;6.46;75.27;92982.38;4922005;29;20054;-46
2020/12/26 02:01:00;;;;;;;39.78;22.15;;;;;;;6.52;74.58;92980.25;4935215;29;20024;-45
2020/12/26 02:03:25;;;;;;;37.28;18.95;;;;;;;6.49;74.79;92989.53;4935481;29;20408;-45
2020/12/26 02:05:52;;;;;;;30.42;17.67;;;;;;;6.39;75.06;92985.78;4935510;29;20031;-46
2020/12/26 02:08:17;;;;;;;26.40;16.63;;;;;;;6.36;74.96;92981.34;4918265;29;20567;-45
2020/12/26 02:10:43;;;;;;;26.00;15.25;;;;;;;6.22;75.03;92977.91;4934587;29;20031;-46
2020/12/26 02:13:09;;;;;;;24.02;13.82;;;;;;;5.80;76.64;92977.06;4935139;29;20034;-46
2020/12/26 02:15:34;;;;;;;24.35;14.18;;;;;;;6.01;76.90;92993.56;4918235;29;20027;-45
2020/12/26 02:18:00;;;;;;;21.40;12.63;;;;;;;5.74;77.09;92972.94;4935280;29;20024;-46
2020/12/26 02:20:25;;;;;;;29.02;13.63;;;;;;;5.90;76.93;92980.09;4935314;29;20084;-46
2020/12/26 02:22:50;;;;;;;21.70;12.25;;;;;;;5.69;76.81;92980.00;4934946;29;20060;-47
2020/12/26 02:25:16;;;;;;;16.55;9.32;;;;;;;5.58;78.61;92976.75;4935189;29;20432;-45
2020/12/26 02:27:41;;;;;;;16.23;8.82;;;;;;;5.59;78.24;92967.28;4934947;29;20090;-46
2020/12/26 02:30:10;;;;;;;15.52;9.15;;;;;;;5.79;78.06;92983.03;4935022;29;20091;-45
2020/12/26 02:32:35;;;;;;;16.20;9.70;;;;;;;5.90;77.40;92975.38;4933615;29;20035;-46
2020/12/26 02:35:00;;;;;;;13.45;7.88;;;;;;;5.99;76.96;92968.72;4935047;29;20043;-48
2020/12/26 02:37:26;;;;;;;14.25;8.90;;;;;;;5.99;76.82;92990.63;4935013;29;20070;-47
2020/12/26 02:39:52;;;;;;;16.63;8.40;;;;;;;5.93;76.90;92990.72;4934863;29;20067;-49
2020/12/26 02:42:17;;;;;;;11.05;8.63;;;;;;;5.92;76.33;92980.31;4934940;29;20036;-48
2020/12/26 02:44:43;;;;;;;14.93;8.75;;;;;;;6.01;76.05;92979.88;4934818;29;20062;-47
2020/12/26 02:47:08;;;;;;;13.85;8.98;;;;;;;5.89;76.52;92984.84;4934842;29;20083;-48
2020/12/26 02:49:33;;;;;;;12.80;7.40;;;;;;;5.90;76.76;92978.09;4934797;29;20062;-48
2020/12/26 02:51:59;;;;;;;11.13;7.15;;;;;;;6.08;75.83;92979.97;4934706;29;20031;-48
2020/12/26 02:54:24;;;;;;;16.45;8.38;;;;;;;6.13;75.85;92978.34;4934693;29;20559;-46
2020/12/26 02:56:50;;;;;;;17.00;8.48;;;;;;;5.84;77.00;92976.75;4934802;29;20579;-45
2020/12/26 02:59:15;;;;;;;16.05;8.27;;;;;;;5.85;76.55;92983.69;4934744;29;20074;-49
2020/12/26 03:01:40;;;;;;;20.83;11.55;;;;;;;5.79;77.44;92978.31;4934719;29;20027;-55
2020/12/26 03:04:06;;;;;;;17.23;9.80;;;;;;;5.79;77.47;92975.56;4934451;29;20027;-54
2020/12/26 03:06:32;;;;;;;16.85;9.60;;;;;;;5.91;76.99;92985.03;4934244;29;20036;-55
2020/12/26 03:08:57;;;;;;;18.42;9.50;;;;;;;5.65;77.24;92976.13;4934537;29;20032;-56
2020/12/26 03:11:23;;;;;;;13.65;9.05;;;;;;;5.59;78.07;92989.19;4934302;29;20027;-53
2020/12/26 03:13:49;;;;;;;14.10;7.60;;;;;;;5.24;78.30;92987.59;4934714;29;20032;-57
2020/12/26 03:16:14;;;;;;;14.50;8.35;;;;;;;5.04;80.10;92971.78;4934300;29;20423;-57
2020/12/26 03:18:40;;;;;;;12.88;7.82;;;;;;;5.13;80.70;92982.31;4934282;29;20524;-46
2020/12/26 03:21:05;;;;;;;12.10;7.43;;;;;;;5.24;79.91;92980.09;4934029;29;20032;-45
2020/12/26 03:23:31;;;;;;;17.08;8.60;;;;;;;5.36;79.17;92988.88;4934139;29;20507;-44
2020/12/26 03:25:56;;;;;;;14.18;6.75;;;;;;;5.50;78.60;92990.31;4932939;29;20079;-44
2020/12/26 03:28:22;;;;;;;12.35;7.25;;;;;;;5.39;78.49;92980.31;4934261;29;20525;-44
2020/12/26 03:30:47;;;;;;;11.68;7.25;;;;;;;5.20;79.72;92982.44;4934290;29;20058;-44
2020/12/26 03:33:12;;;;;;;12.85;6.80;;;;;;;5.46;79.37;92978.94;4934236;29;20555;-45
2020/12/26 03:35:38;;;;;;;11.80;6.40;;;;;;;5.56;78.64;92976.53;4934263;29;20039;-44
2020/12/26 03:38:03;;;;;;;11.38;6.70;;;;;;;5.61;77.61;92981.91;4934256;29;20063;-44
2020/12/26 03:40:29;;;;;;;10.90;7.40;;;;;;;5.49;76.85;92985.38;4934138;29;20038;-44
2020/12/26 03:42:54;;;;;;;10.50;6.03;;;;;;;5.29;76.64;92982.00;4934033;29;20035;-44
2020/12/26 03:45:21;;;;;;;11.32;5.85;;;;;;;5.28;76.98;92982.53;4934147;29;20416;-44
2020/12/26 03:47:46;;;;;;;11.32;6.32;;;;;;;5.39;77.05;92982.34;4934080;29;20032;-46
2020/12/26 03:50:12;;;;;;;11.60;6.90;;;;;;;5.30;77.12;92986.25;4934233;29;20030;-45
2020/12/26 03:52:37;;;;;;;10.38;7.63;;;;;;;5.29;76.81;92981.28;4934042;29;20050;-45
2020/12/26 03:55:03;;;;;;;11.77;7.28;;;;;;;5.32;76.72;92980.22;4933945;29;20397;-45
2020/12/26 03:57:28;;;;;;;13.90;8.65;;;;;;;5.32;77.06;92980.97;4934058;29;20032;-45
2020/12/26 03:59:54;;;;;;;14.70;9.60;;;;;;;5.39;76.89;92977.59;4933844;29;20124;-49
2020/12/26 04:02:19;;;;;;;17.02;9.07;;;;;;;5.52;76.19;92987.81;4934165;29;20024;-45
2020/12/26 04:04:45;;;;;;;19.27;12.18;;;;;;;5.56;75.96;92988.25;4933993;29;20530;-45
2020/12/26 04:07:10;;;;;;;19.38;10.60;;;;;;;5.62;75.56;92980.66;4933750;29;20028;-46
2020/12/26 04:09:36;;;;;;;20.27;12.00;;;;;;;5.52;75.80;92990.56;4933968;29;20023;-45
2020/12/26 04:12:01;;;;;;;18.15;10.40;;;;;;;5.47;76.55;92993.38;4933784;29;20063;-45
2020/12/26 04:14:26;;;;;;;13.98;9.52;;;;;;;5.52;76.24;92992.56;4933863;29;20028;-45
2020/12/26 04:16:58;;;;;;;15.77;8.55;;;;;;;5.38;77.16;92986.34;4933279;29;20031;-46
2020/12/26 04:19:25;;;;;;;18.27;8.48;;;;;;;5.52;77.10;92981.59;4932979;29;20405;-46
2020/12/26 04:21:50;;;;;;;14.75;8.35;;;;;;;5.60;77.00;92990.66;4933636;29;20500;-45
2020/12/26 04:24:16;;;;;;;15.90;8.65;;;;;;;5.57;76.52;92991.69;4933817;29;20091;-43
2020/12/26 04:26:41;;;;;;;17.73;9.30;;;;;;;5.63;76.41;92986.88;4933789;29;20489;-45
2020/12/26 04:29:07;;;;;;;18.65;9.48;;;;;;;5.65;76.38;92990.53;4916738;29;20034;-47
2020/12/26 04:31:32;;;;;;;17.42;10.40;;;;;;;5.70;76.33;92995.16;4933669;29;20028;-43
2020/12/26 04:33:58;;;;;;;23.90;12.43;;;;;;;5.71;76.29;92996.66;4936329;29;20066;-44
2020/12/26 04:36:24;;;;;;;27.88;14.07;;;;;;;5.72;75.77;92987.16;4937029;29;20040;-46
2020/12/26 04:38:49;;;;;;;33.17;17.08;;;;;;;5.74;75.69;92987.38;4937076;29;20027;-44
2020/12/26 04:41:18;;;;;;;19.90;11.68;;;;;;;5.40;76.75;92997.50;4937055;29;20031;-44
2020/12/26 04:43:43;;;;;;;19.67;11.02;;;;;;;5.47;76.74;92994.13;4936858;29;20471;-44
2020/12/26 04:46:13;;;;;;;20.13;11.73;;;;;;;5.56;76.30;92996.44;4937018;29;20036;-45
2020/12/26 04:48:46;;;;;;;14.57;8.68;;;;;;;5.43;76.44;93003.91;4936932;29;20421;-45
2020/12/26 04:51:15;;;;;;;13.55;8.05;;;;;;;5.44;76.51;92997.16;4919966;29;20059;-46
2020/12/26 04:53:43;;;;;;;17.70;10.25;;;;;;;5.64;76.20;92999.28;4936817;29;20034;-45
2020/12/26 04:56:09;;;;;;;16.98;9.82;;;;;;;5.52;76.10;92996.03;4936683;29;20050;-46
2020/12/26 04:58:34;;;;;;;15.57;8.98;;;;;;;5.55;76.38;93007.91;4919607;29;20035;-45
2020/12/26 05:01:00;;;;;;;14.25;7.93;;;;;;;5.59;76.38;93002.88;4919760;29;20032;-45
2020/12/26 05:03:27;;;;;;;15.07;8.80;;;;;;;5.66;76.25;92997.50;4936686;29;20070;-45
2020/12/26 05:06:02;;;;;;;12.90;8.65;;;;;;;5.66;76.17;92999.47;4936645;29;20543;-45
2020/12/26 05:08:28;;;;;;;19.73;10.27;;;;;;;5.34;77.11;92999.59;4918736;29;20063;-44
2020/12/26 05:10:53;;;;;;;12.50;8.15;;;;;;;5.47;77.22;93007.06;4935955;29;20055;-45
2020/12/26 05:13:19;;;;;;;17.50;8.32;;;;;;;5.63;76.73;92998.53;4936460;29;20066;-45
2020/12/26 05:15:44;;;;;;;18.02;11.02;;;;;;;5.40;77.49;93005.69;4936568;29;20031;-45
2020/12/26 05:18:09;;;;;;;18.58;10.02;;;;;;;5.68;77.91;92997.69;4936516;29;20397;-44
2020/12/26 05:20:35;;;;;;;18.13;11.13;;;;;;;5.64;77.93;92997.28;4936356;29;20043;-45
2020/12/26 05:23:07;;;;;;;31.15;16.85;;;;;;;5.63;77.91;92995.78;4936121;29;20059;-45
2020/12/26 05:25:33;;;;;;;21.90;13.20;;;;;;;5.42;78.33;92997.69;4936142;29;20043;-45
2020/12/26 05:28:15;;;;;;;16.63;9.40;;;;;;;5.49;78.72;93002.56;4936224;29;20030;-44
2020/12/26 05:30:45;;;;;;;14.32;8.82;;;;;;;5.60;78.62;93004.34;4936206;29;20027;-46
2020/12/26 05:33:11;;;;;;;14.43;9.48;;;;;;;5.60;78.30;93001.59;4936179;29;20108;-46
2020/12/26 05:35:39;;;;;;;19.40;12.00;;;;;;;5.66;78.02;93002.22;4936186;29;20031;-45
2020/12/26 05:38:17;;;;;;;29.92;15.35;;;;;;;5.64;77.57;92996.53;4936032;29;20047;-46
2020/12/26 05:40:48;;;;;;;24.43;13.73;;;;;;;5.72;76.92;92998.09;4936129;29;20086;-46
2020/12/26 05:43:19;;;;;;;25.73;13.20;;;;;;;5.34;78.14;92996.88;4935566;29;20059;-49
2020/12/26 05:45:45;;;;;;;17.10;10.90;;;;;;;5.15;79.73;92991.50;4936004;29;20114;-49
2020/12/26 05:48:13;;;;;;;20.42;10.73;;;;;;;4.95;80.82;92969.47;4935815;29;20397;-47
2020/12/26 05:50:40;;;;;;;15.52;9.70;;;;;;;5.33;80.21;92984.44;4935837;29;20480;-48
2020/12/26 05:53:12;;;;;;;18.05;11.60;;;;;;;5.52;79.14;92990.56;4935785;29;20074;-47
2020/12/26 05:55:46;;;;;;;42.00;19.27;;;;;;;5.49;78.39;92996.34;4935706;29;20031;-47
2020/12/26 05:58:21;;;;;;;40.13;21.75;;;;;;;5.45;77.98;92993.19;4935232;29;20027;-46
2020/12/26 06:00:46;;;;;;;71.53;35.10;;;;;;;5.30;78.35;93001.91;4934756;29;20032;-45
2020/12/26 06:03:29;;;;;;;44.58;23.17;;;;;;;5.18;79.29;93006.09;4918519;29;20099;-45
2020/12/26 06:06:02;;;;;;;34.22;19.27;;;;;;;5.13;79.39;92994.00;4935524;29;20030;-43
2020/12/26 06:08:29;;;;;;;30.25;18.05;;;;;;;5.38;79.31;93028.13;4935829;29;20031;-44
2020/12/26 06:11:03;;;;;;;42.95;23.55;;;;;;;5.10;79.20;93018.94;4935541;29;20115;-45
2020/12/26 06:13:30;;;;;;;40.38;21.67;;;;;;;4.88;80.46;93022.03;4935655;29;20032;-44
2020/12/26 06:15:56;;;;;;;43.67;23.25;;;;;;;5.05;79.86;93025.97;4935199;29;20023;-44
2020/12/26 06:18:23;;;;;;;36.67;22.23;;;;;;;4.79;80.70;93030.63;4935252;29;20049;-47
2020/12/26 06:20:51;;;;;;;27.10;16.00;;;;;;;4.60;82.52;93031.44;4935315;29;20027;-47
2020/12/26 06:23:18;;;;;;;16.20;9.60;;;;;;;4.56;83.38;93025.53;4934922;29;20054;-46
2020/12/26 06:25:44;;;;;;;21.17;10.68;;;;;;;4.69;83.81;93024.84;4935095;29;20031;-45
2020/12/26 06:28:29;;;;;;;21.13;12.02;;;;;;;4.93;83.13;93037.63;4935441;29;20444;-44
2020/12/26 06:31:00;;;;;;;130.32;50.35;;;;;;;5.10;82.18;93046.28;4934909;29;20023;-44
2020/12/26 06:33:29;;;;;;;147.68;56.47;;;;;;;5.20;80.63;93044.63;4934982;29;20034;-45
2020/12/26 06:35:56;;;;;;;207.52;86.82;;;;;;;5.24;79.89;93047.81;4935084;29;20405;-47
2020/12/26 06:38:27;;;;;;;121.40;55.95;;;;;;;5.22;79.37;93039.38;4934779;29;20030;-45
2020/12/26 06:40:55;;;;;;;60.90;31.05;;;;;;;4.91;80.38;93046.38;4935004;29;20046;-45
2020/12/26 06:43:39;;;;;;;75.40;37.88;;;;;;;5.11;80.40;93042.31;4934737;29;20103;-45
2020/12/26 06:46:28;;;;;;;68.45;35.78;;;;;;;5.03;81.16;93050.38;4934821;29;20032;-45
2020/12/26 06:48:55;;;;;;;58.03;32.80;;;;;;;5.27;80.75;93050.22;4923068;29;20043;-45
2020/12/26 06:51:21;;;;;;;46.83;27.08;;;;;;;5.39;80.14;93046.03;4934462;29;20046;-46
2020/12/26 06:53:46;;;;;;;52.60;30.13;;;;;;;5.48;79.66;93047.59;4934699;29;20023;-44
2020/12/26 06:56:32;;;;;;;54.10;28.27;;;;;;;5.25;79.54;93041.06;4933764;29;20055;-45
2020/12/26 06:58:58;;;;;;;49.63;25.70;;;;;;;5.15;80.46;93045.47;4933149;29;20111;-45
2020/12/26 07:01:24;;;;;;;55.38;27.05;;;;;;;5.23;80.84;93038.84;4933911;29;20102;-45
2020/12/26 07:04:19;;;;;;;70.45;35.88;;;;;;;5.59;79.59;93052.88;4933960;29;20106;-45
2020/12/26 07:06:50;;;;;;;119.93;54.13;;;;;;;5.72;78.85;93052.88;4930092;29;20098;-45
2020/12/26 07:09:20;;;;;;;93.40;46.92;;;;;;;5.71;78.72;93054.16;4934118;29;20028;-46
2020/12/26 07:11:47;;;;;;;92.43;45.90;;;;;;;5.74;78.34;93050.34;4934112;29;20460;-45
2020/12/26 07:14:34;;;;;;;70.88;36.25;;;;;;;5.96;77.59;93055.44;4934188;29;20402;-45
2020/12/26 07:17:03;;;;;;;38.50;21.27;;;;;;;5.89;77.89;93044.41;4933493;29;20031;-45
2020/12/26 07:19:38;;;;;;;60.70;32.35;;;;;;;6.07;77.75;93052.47;4931494;29;20389;-47
2020/12/26 07:22:33;;;;;;;46.80;24.95;;;;;;;6.13;77.95;93057.84;4933566;29;20543;-45
2020/12/26 07:25:05;;;;;;;50.63;28.95;;;;;;;5.78;79.06;93052.78;4932814;29;20019;-47
2020/12/26 07:27:41;;;;;;;23.60;13.52;;;;;;;5.48;80.43;93046.91;4929738;29;20042;-45
2020/12/26 07:30:26;;;;;;;27.33;16.70;;;;;;;5.43;80.83;93028.56;4932351;29;20038;-47
2020/12/26 07:32:55;;;;;;;14.25;9.18;;;;;;;5.48;81.20;93025.69;4933217;29;20171;-44
2020/12/26 07:35:21;;;;;;;;;;;;;;;5.67;81.24;93040.06;4933318;29;20106;-45
2020/12/26 07:37:52;;;;;;;16.15;10.48;;;;;;;5.90;80.58;93038.38;4932735;29;20451;-45
2020/12/26 07:40:20;;;;;;;18.02;10.45;;;;;;;5.90;79.99;93007.50;4932394;29;20082;-45
2020/12/26 07:42:46;;;;;;;49.47;22.60;;;;;;;6.28;79.63;93036.09;4932780;29;20032;-45
2020/12/26 07:45:22;;;;;;;110.13;52.88;;;;;;;6.33;78.88;93034.50;4932921;29;20035;-46
2020/12/26 07:47:53;;;;;;;89.88;45.72;;;;;;;6.33;78.64;93032.50;4932940;29;20031;-45
2020/12/26 07:50:26;;;;;;;86.13;47.28;;;;;;;6.27;78.35;93004.47;4933061;29;20024;-45
2020/12/26 07:52:54;;;;;;;123.35;61.92;;;;;;;6.51;77.95;93037.09;4932739;29;20039;-45
2020/12/26 07:55:20;;;;;;;82.35;42.50;;;;;;;6.61;77.79;93034.63;4932884;29;20027;-45
2020/12/26 07:57:46;;;;;;;96.40;48.88;;;;;;;6.73;77.11;93027.63;4932950;29;20416;-46
2020/12/26 08:00:25;;;;;;;135.38;64.20;;;;;;;6.77;77.20;93030.78;4932892;29;20031;-45
2020/12/26 08:02:54;;;;;;;;;;;;;;;6.94;76.74;93025.63;4933331;29;20416;-46
2020/12/26 08:05:20;;;;;;;;;;;;;;;6.97;76.32;93032.06;4932971;29;19998;-45
2020/12/26 08:07:46;;;;;;;200.77;89.35;;;;;;;7.03;75.54;93033.41;4915612;29;19911;-45
2020/12/26 08:10:13;;;;;;;202.77;96.90;;;;;;;6.83;76.44;93034.88;4936368;29;20111;-47
2020/12/26 08:12:46;;;;;;;173.20;82.82;;;;;;;7.04;76.53;93032.09;4919319;29;20103;-46
2020/12/26 08:15:12;;;;;;;159.43;80.82;;;;;;;6.99;76.24;93030.25;4936214;29;20515;-44
2020/12/26 08:17:37;;;;;;;158.35;77.13;;;;;;;6.82;77.60;93021.69;4936370;29;20028;-45
2020/12/26 08:20:03;;;;;;;115.25;60.78;;;;;;;7.15;77.12;93017.38;4919272;29;20114;-51
2020/12/26 08:22:28;;;;;;;41.13;23.90;;;;;;;7.35;76.69;93022.13;4936028;29;20130;-45
2020/12/26 08:25:07;;;;;;;37.90;21.55;;;;;;;7.47;76.50;93026.06;4936381;29;20023;-45
2020/12/26 08:27:33;;;;;;;;;;;;;;;7.62;76.14;93032.38;4936657;29;20030;-45
2020/12/26 08:30:05;;;;;;;146.02;72.93;;;;;;;7.60;76.20;93034.22;4940254;29;20387;-45
2020/12/26 08:32:37;;;;;;;151.18;79.07;;;;;;;7.73;75.71;93049.88;4954608;29;20082;-46
2020/12/26 08:35:03;;;;;;;121.75;67.60;;;;;;;7.97;74.91;93041.94;4934509;29;20469;-45
2020/12/26 08:37:35;;;;;;;126.97;68.88;;;;;;;8.03;74.76;93042.53;4936735;29;20495;-45
2020/12/26 08:40:02;;;;;;;92.63;51.85;;;;;;;7.73;74.55;93011.41;4917364;29;20024;-45
2020/12/26 08:42:29;;;;;;;112.68;58.22;;;;;;;8.11;74.46;93045.31;4916992;29;20102;-46
2020/12/26 08:44:55;;;;;;;69.72;38.88;;;;;;;8.17;74.01;93045.88;4916948;29;20551;-46
2020/12/26 08:47:31;;;;;;;48.67;27.55;;;;;;;8.13;74.55;93048.25;4933821;29;20114;-46
2020/12/26 08:49:57;;;;;;;43.90;26.65;;;;;;;8.14;74.02;93044.22;4934531;29;20519;-45
2020/12/26 08:52:26;;;;;;;52.00;27.70;;;;;;;8.15;73.27;93016.19;4935313;29;20031;-45
2020/12/26 08:55:05;;;;;;;45.65;25.88;;;;;;;8.22;74.44;93018.25;4943328;29;20019;-48
2020/12/26 08:57:31;;;;;;;45.15;24.38;;;;;;;8.54;73.64;93028.09;4954643;29;20031;-47
2020/12/26 09:00:20;;;;;;;40.38;22.50;;;;;;;8.60;73.29;93021.13;4932224;29;20147;-46
2020/12/26 09:02:47;;;;;;;30.08;17.42;;;;;;;8.74;72.73;93027.22;4933980;29;20100;-43
2020/12/26 09:05:23;;;;;;;30.25;16.75;;;;;;;8.74;72.37;93022.47;4942353;29;20106;-45
2020/12/26 09:08:02;;;;;;;24.83;16.35;;;;;;;8.71;72.84;93006.28;4926439;29;20035;-44
2020/12/26 09:10:28;;;;;;;22.85;14.15;;;;;;;8.81;72.59;93010.00;4916731;29;20028;-43
2020/12/26 09:13:11;;;;;;;24.95;14.50;;;;;;;8.92;72.73;93024.13;4935442;29;20062;-43
2020/12/26 09:15:54;;;;;;;27.52;16.10;;;;;;;9.08;71.91;93011.13;4935068;29;20031;-48
2020/12/26 09:18:27;;;;;;;28.50;16.13;;;;;;;9.21;71.28;93018.47;4934745;29;20489;-45
2020/12/26 09:20:57;;;;;;;24.75;16.42;;;;;;;9.25;70.73;93011.31;4934725;29;20042;-45
2020/12/26 09:23:23;;;;;;;31.13;19.52;;;;;;;9.25;70.82;93003.06;4934864;29;20079;-43
2020/12/26 09:25:49;;;;;;;34.40;21.60;;;;;;;9.30;70.99;93021.44;4935137;29;20564;-44
2020/12/26 09:28:16;;;;;;;70.97;39.22;;;;;;;9.32;70.77;93012.59;4934592;29;20030;-47
2020/12/26 09:30:42;;;;;;;67.07;36.00;;;;;;;9.37;70.35;93011.69;4934676;29;20036;-44
2020/12/26 09:33:08;;;;;;;59.30;32.72;;;;;;;9.36;70.77;93027.50;4934630;29;20027;-44
2020/12/26 09:35:34;;;;;;;53.63;29.13;;;;;;;9.09;71.79;93016.13;4934382;29;20023;-44
2020/12/26 09:38:00;;;;;;;29.25;17.75;;;;;;;9.27;70.91;93025.28;4934603;29;20020;-44
2020/12/26 09:40:34;;;;;;;24.48;15.40;;;;;;;9.16;71.98;93026.38;4934512;29;20107;-45
2020/12/26 09:43:00;;;;;;;24.63;14.38;;;;;;;9.22;71.50;93014.47;4932690;29;20023;-44
2020/12/26 09:45:26;;;;;;;23.27;13.82;;;;;;;9.33;70.69;93019.59;4934094;29;20024;-44
2020/12/26 09:47:55;;;;;;;26.60;16.92;;;;;;;9.49;69.89;93021.06;4934731;29;20039;-44
2020/12/26 09:50:20;;;;;;;;;;;;;;;9.24;71.03;93012.63;4935238;29;20035;-44
2020/12/26 09:52:46;;;;;;;24.55;14.77;;;;;;;9.40;71.05;93003.06;4934341;29;19911;-44
2020/12/26 09:55:11;;;;;;;21.83;15.50;;;;;;;9.63;70.47;93006.53;4934683;29;20047;-45
2020/12/26 09:57:38;;;;;;;25.42;16.05;;;;;;;9.82;70.29;93003.38;4934582;29;20039;-44
2020/12/26 10:00:05;;;;;;;26.70;16.60;;;;;;;10.01;69.94;92998.19;4934781;29;20027;-44
2020/12/26 10:02:31;;;;;;;27.63;14.48;;;;;;;10.14;69.55;92986.94;4934358;29;20027;-45
2020/12/26 10:04:56;;;;;;;20.67;11.75;;;;;;;10.27;69.27;93008.06;4934549;29;20031;-44
2020/12/26 10:07:21;;;;;;;14.02;8.65;;;;;;;10.43;68.27;93006.72;4933164;29;20027;-43
2020/12/26 10:09:47;;;;;;;16.67;9.98;;;;;;;10.61;67.74;93006.25;4934090;29;20027;-44
2020/12/26 10:12:12;;;;;;;21.98;10.63;;;;;;;10.72;66.90;93007.13;4934115;29;20026;-44
2020/12/26 10:14:38;;;;;;;19.17;12.27;;;;;;;10.88;65.41;93006.47;4933265;29;20038;-43
2020/12/26 10:17:04;;;;;;;26.80;14.93;;;;;;;11.01;64.59;93008.25;4933711;29;20039;-44
2020/12/26 10:19:29;;;;;;;26.80;14.73;;;;;;;11.11;64.52;93009.13;4932444;29;20111;-42
2020/12/26 10:21:55;;;;;;;18.70;11.85;;;;;;;10.99;63.18;92994.25;4915091;29;20071;-44
2020/12/26 10:24:20;;;;;;;16.40;10.40;;;;;;;10.88;63.42;92991.94;4931167;29;20030;-42
2020/12/26 10:26:46;;;;;;;17.58;10.02;;;;;;;10.98;63.11;93009.38;4930537;29;20024;-44
2020/12/26 10:29:11;;;;;;;16.73;11.35;;;;;;;11.07;63.27;92992.91;4931506;29;20102;-43
2020/12/26 10:31:37;;;;;;;18.40;9.60;;;;;;;11.15;63.07;92999.13;4931118;29;20097;-47
2020/12/26 10:34:02;;;;;;;14.88;8.75;;;;;;;11.01;63.28;92977.84;4932623;29;20035;-47
2020/12/26 10:36:29;;;;;;;27.15;13.57;;;;;;;11.08;63.41;93005.44;4933354;29;20052;-42
2020/12/26 10:38:54;;;;;;;29.70;17.52;;;;;;;10.72;65.01;92988.53;4933567;29;20106;-42
2020/12/26 10:41:21;;;;;;;36.95;21.45;;;;;;;10.96;64.82;92998.16;4933799;29;20028;-46
2020/12/26 10:43:46;;;;;;;39.50;20.88;;;;;;;10.94;64.97;93003.50;4933519;29;20036;-46
2020/12/26 10:46:12;;;;;;;43.33;19.70;;;;;;;10.97;64.73;92988.56;4933799;29;20102;-46
2020/12/26 10:48:37;;;;;;;32.03;15.82;;;;;;;10.97;64.19;93013.44;4933770;29;20027;-46
2020/12/26 10:51:05;;;;;;;11.98;7.80;;;;;;;10.85;63.42;93009.66;4933657;29;20035;-43
2020/12/26 10:53:31;;;;;;;11.10;7.85;;;;;;;10.73;63.27;92984.47;4933546;29;20039;-44
2020/12/26 10:55:56;;;;;;;9.50;7.28;;;;;;;10.82;63.93;92986.66;4933671;29;20024;-43
2020/12/26 10:58:22;;;;;;;10.18;6.00;;;;;;;11.02;63.15;92991.09;4933388;29;20108;-43
2020/12/26 11:00:47;;;;;;;11.70;6.32;;;;;;;11.18;63.96;92991.72;4934877;29;20023;-43
2020/12/26 11:03:13;;;;;;;18.05;10.73;;;;;;;11.17;63.31;92979.22;4943977;29;20030;-45
2020/12/26 11:05:38;;;;;;;15.40;8.20;;;;;;;11.20;62.32;92998.16;4952622;29;20487;-43
2020/12/26 11:08:03;;;;;;;15.30;10.13;;;;;;;11.32;62.06;92988.16;4951376;29;20474;-42
2020/12/26 11:10:29;;;;;;;11.77;7.28;;;;;;;11.37;61.65;92992.69;4952669;29;20559;-43
2020/12/26 11:12:55;;;;;;;12.73;7.57;;;;;;;11.39;62.02;93009.44;4952591;29;20554;-43
2020/12/26 11:15:20;;;;;;;43.15;24.40;;;;;;;11.44;61.29;93013.28;4933418;29;20035;-44
2020/12/26 11:17:46;;;;;;;14.15;9.48;;;;;;;11.54;61.50;93000.31;4914271;29;20071;-45
2020/12/26 11:20:11;;;;;;;18.80;9.65;;;;;;;11.57;61.77;93010.22;4912754;29;20092;-46
2020/12/26 11:22:37;;;;;;;18.23;12.20;;;;;;;11.53;62.11;93020.94;4912599;29;20083;-50
2020/12/26 11:25:02;;;;;;;21.88;12.40;;;;;;;11.51;61.51;93009.72;4912492;29;20071;-46
2020/12/26 11:27:28;;;;;;;21.83;12.55;;;;;;;11.57;61.86;92993.63;4912480;29;20027;-49
2020/12/26 11:29:53;;;;;;;23.15;10.52;;;;;;;11.54;62.53;92994.78;4912988;29;20039;-49